createdAt,value
2023-01-20T00:02:08.843Z,5.00
2023-01-20T00:12:13.306Z,4.27
2023-01-20T00:22:16.440Z,4.50
2023-01-20T00:32:20.856Z,3.93
2023-01-20T00:42:23.941Z,4.77
2023-01-20T00:52:28.322Z,4.17
2023-01-20T01:02:31.451Z,4.03
2023-01-20T01:12:35.935Z,4.30
2023-01-20T01:22:39.000Z,3.30
2023-01-20T01:32:43.486Z,3.80
2023-01-20T01:42:46.530Z,3.80
2023-01-20T01:52:54.971Z,3.97
2023-01-20T02:02:58.634Z,3.90
2023-01-20T02:13:04.600Z,3.93
2023-01-20T02:23:19.065Z,3.70
2023-01-20T02:33:30.197Z,3.83
2023-01-20T02:43:36.654Z,3.50
2023-01-20T02:53:47.919Z,3.57
2023-01-20T03:03:55.097Z,2.83
2023-01-20T03:14:05.151Z,2.87
2023-01-20T03:24:08.953Z,2.80
2023-01-20T03:34:16.962Z,2.90
2023-01-20T03:44:26.618Z,2.50
2023-01-20T03:54:39.125Z,2.80
2023-01-20T04:04:44.799Z,2.63
2023-01-20T04:14:49.239Z,2.47
2023-01-20T04:24:55.558Z,2.30
2023-01-20T04:34:59.943Z,3.03
2023-01-20T04:45:18.547Z,2.20
2023-01-20T04:55:23.019Z,2.50
2023-01-20T05:05:26.237Z,2.60
2023-01-20T05:15:30.644Z,2.23
2023-01-20T05:25:33.782Z,2.30
2023-01-20T05:35:38.840Z,2.17
2023-01-20T05:45:42.277Z,2.37
2023-01-20T05:55:46.955Z,2.33
2023-01-20T06:05:50.360Z,2.80
2023-01-20T06:15:55.796Z,2.73
2023-01-20T06:26:00.302Z,2.87
2023-01-20T06:36:05.703Z,2.87
2023-01-20T06:46:11.507Z,2.50
2023-01-20T06:56:17.003Z,1.90
2023-01-20T07:06:25.989Z,2.70
2023-01-20T07:16:30.757Z,2.43
2023-01-20T07:26:33.824Z,2.50
2023-01-20T07:36:38.207Z,2.23
2023-01-20T07:46:41.314Z,2.70
2023-01-20T07:56:45.732Z,2.57
2023-01-20T08:06:48.820Z,2.47
2023-01-20T08:16:53.300Z,2.33
2023-01-20T08:26:56.344Z,2.83
2023-01-20T08:37:00.762Z,3.03
2023-01-20T08:47:03.851Z,3.23
2023-01-20T08:57:08.252Z,3.13
2023-01-20T09:07:13.296Z,2.90
2023-01-20T09:17:17.992Z,3.40
2023-01-20T09:27:21.585Z,3.57
2023-01-20T09:37:43.592Z,3.37
2023-01-20T09:47:49.145Z,2.90
2023-01-20T09:57:59.858Z,2.53
2023-01-20T10:08:09.803Z,2.80
2023-01-20T10:18:17.827Z,2.43
2023-01-20T10:28:27.475Z,2.30
2023-01-20T10:38:40.746Z,2.23
2023-01-20T10:49:00.502Z,2.70
2023-01-20T10:59:10.115Z,2.80
2023-01-20T11:09:25.138Z,2.50
2023-01-20T11:19:46.485Z,2.20
2023-01-20T11:29:53.874Z,2.30
2023-01-20T11:40:04.118Z,2.50
2023-01-20T11:50:33.142Z,2.40
2023-01-20T12:00:42.030Z,2.80
2023-01-20T12:10:45.997Z,2.67
2023-01-20T12:20:56.962Z,2.60
2023-01-20T12:31:01.484Z,3.20
2023-01-20T12:41:14.652Z,3.40
2023-01-20T12:51:39.215Z,3.40
2023-01-20T13:01:55.875Z,2.50
2023-01-20T13:12:16.299Z,3.03
2023-01-20T13:22:22.339Z,3.30
2023-01-20T13:32:30.909Z,3.40
2023-01-20T13:42:52.204Z,2.97
2023-01-20T13:53:07.567Z,2.80
2023-01-20T14:03:22.881Z,4.00
2023-01-20T14:13:26.355Z,3.73
2023-01-20T14:23:37.543Z,3.60
2023-01-20T14:33:45.998Z,3.57
2023-01-20T14:43:50.419Z,3.77
2023-01-20T14:54:31.873Z,4.27
2023-01-20T15:04:39.684Z,3.93
2023-01-20T15:14:42.801Z,4.47
2023-01-20T15:24:49.482Z,4.27
2023-01-20T15:34:52.508Z,3.10
2023-01-20T15:44:56.905Z,3.70
2023-01-20T15:54:59.993Z,3.00
2023-01-20T16:05:05.638Z,3.43
2023-01-20T16:15:10.567Z,4.87
2023-01-20T16:25:15.157Z,12.87
2023-01-20T16:35:20.642Z,5.53
2023-01-20T16:45:28.162Z,3.70
2023-01-20T16:55:31.686Z,5.93
2023-01-20T17:05:36.495Z,3.73
2023-01-20T17:15:42.513Z,4.20
2023-01-20T17:25:48.259Z,5.23
2023-01-20T17:35:56.867Z,5.00
2023-01-20T17:46:01.717Z,4.33
2023-01-20T17:56:12.385Z,4.63
2023-01-20T18:06:20.026Z,5.03
2023-01-20T18:16:28.083Z,5.30
2023-01-20T18:26:35.948Z,7.00
2023-01-20T18:36:41.114Z,6.57
2023-01-20T18:46:45.617Z,6.90
2023-01-20T18:56:48.861Z,9.73
2023-01-20T19:06:53.323Z,6.47
2023-01-20T19:16:56.398Z,6.23
2023-01-20T19:27:00.798Z,7.60
2023-01-20T19:37:03.816Z,8.57
2023-01-20T19:47:08.225Z,9.63
2023-01-20T19:57:11.335Z,8.03
2023-01-20T20:07:15.785Z,10.53
2023-01-20T20:17:18.842Z,7.53
2023-01-20T20:27:23.479Z,7.47
2023-01-20T20:37:26.809Z,7.33
2023-01-20T20:47:33.556Z,7.70
2023-01-20T20:57:37.016Z,8.70
2023-01-20T21:07:41.465Z,8.30
2023-01-20T21:17:44.583Z,8.53
2023-01-20T21:27:49.032Z,7.60
2023-01-20T21:37:52.123Z,8.33
2023-01-20T21:48:18.435Z,7.97
2023-01-20T21:58:21.466Z,7.50
2023-01-20T22:08:25.970Z,7.87
2023-01-20T22:18:28.988Z,7.07
2023-01-20T22:28:38.884Z,8.00
2023-01-20T22:38:43.060Z,7.30
2023-01-20T22:48:48.126Z,7.20
2023-01-20T22:58:51.643Z,7.17
2023-01-20T23:08:56.261Z,7.10
2023-01-20T23:18:59.479Z,6.90
2023-01-20T23:29:03.992Z,6.70
2023-01-20T23:39:07.077Z,6.50
2023-01-20T23:49:11.551Z,6.73
2023-01-20T23:59:14.633Z,5.83
